createdAt,value
2019-04-09T00:00:10.324Z,0.00
2019-04-09T00:01:10.087Z,0.00
2019-04-09T00:02:09.531Z,0.00
2019-04-09T00:03:09.471Z,0.00
2019-04-09T00:04:10.324Z,0.00
2019-04-09T00:05:10.305Z,0.00
2019-04-09T00:06:09.333Z,0.00
2019-04-09T00:07:10.188Z,0.00
2019-04-09T00:08:09.820Z,0.00
2019-04-09T00:09:10.040Z,0.00
2019-04-09T00:10:09.968Z,0.00
2019-04-09T00:11:09.113Z,0.00
2019-04-09T00:12:09.162Z,0.00
2019-04-09T00:13:09.304Z,0.00
2019-04-09T00:14:09.265Z,0.00
2019-04-09T00:15:09.221Z,0.00
2019-04-09T00:16:08.880Z,0.00
2019-04-09T00:17:09.140Z,0.00
2019-04-09T00:18:08.788Z,0.00
2019-04-09T00:19:08.728Z,0.00
2019-04-09T00:20:08.682Z,0.00
2019-04-09T00:21:08.651Z,0.00
2019-04-09T00:22:08.601Z,0.00
2019-04-09T00:23:08.556Z,0.00
2019-04-09T00:24:08.514Z,0.00
2019-04-09T00:25:08.652Z,0.00
2019-04-09T00:26:09.281Z,0.00
2019-04-09T00:27:08.887Z,0.00
2019-04-09T00:28:08.322Z,0.00
2019-04-09T00:29:08.227Z,0.00
2019-04-09T00:30:10.265Z,0.00
2019-04-09T00:31:08.183Z,0.00
2019-04-09T00:32:08.123Z,0.00
2019-04-09T00:33:08.078Z,0.00
2019-04-09T00:34:08.052Z,0.00
2019-04-09T00:35:09.048Z,0.00
2019-04-09T00:36:08.994Z,0.00
2019-04-09T00:37:08.711Z,0.00
2019-04-09T00:38:07.845Z,0.00
2019-04-09T00:39:08.026Z,0.00
2019-04-09T00:40:08.025Z,0.00
2019-04-09T00:41:07.706Z,0.00
2019-04-09T00:42:07.659Z,0.00
2019-04-09T00:43:08.113Z,0.00
2019-04-09T00:44:08.127Z,0.00
2019-04-09T00:45:07.520Z,0.00
2019-04-09T00:46:07.473Z,0.00
2019-04-09T00:47:08.099Z,0.00
2019-04-09T00:48:07.381Z,0.00
2019-04-09T00:49:07.373Z,0.00
2019-04-09T00:50:08.291Z,0.00
2019-04-09T00:51:08.328Z,0.00
2019-04-09T00:52:07.194Z,0.00
2019-04-09T00:53:07.455Z,0.00
2019-04-09T00:54:07.210Z,0.00
2019-04-09T00:55:07.068Z,0.00
2019-04-09T00:56:07.025Z,0.00
2019-04-09T00:57:09.103Z,0.00
2019-04-09T00:58:07.817Z,0.00
2019-04-09T00:59:07.700Z,0.00
2019-04-09T01:00:07.855Z,0.00
2019-04-09T01:01:07.723Z,0.00
2019-04-09T01:02:06.778Z,0.00
2019-04-09T01:03:07.677Z,0.00
2019-04-09T01:04:07.588Z,0.00
2019-04-09T01:05:06.602Z,0.00
2019-04-09T01:06:06.907Z,0.00
2019-04-09T01:07:06.496Z,0.00
2019-04-09T01:08:06.902Z,0.00
2019-04-09T01:09:06.415Z,0.00
2019-04-09T01:10:06.369Z,0.00
2019-04-09T01:11:07.341Z,0.00
2019-04-09T01:12:06.277Z,0.00
2019-04-09T01:13:06.345Z,0.00
2019-04-09T01:14:07.066Z,0.00
2019-04-09T01:15:06.617Z,0.00
2019-04-09T01:16:06.368Z,0.00
2019-04-09T01:17:06.954Z,0.00
2019-04-09T01:18:05.985Z,0.00
2019-04-09T01:19:12.063Z,0.00
2019-04-09T01:20:07.087Z,0.00
2019-04-09T01:21:06.855Z,0.00
2019-04-09T01:22:05.812Z,0.00
2019-04-09T01:23:06.065Z,0.00
2019-04-09T01:24:05.718Z,0.00
2019-04-09T01:25:06.204Z,0.00
2019-04-09T01:26:06.078Z,0.00
2019-04-09T01:27:13.798Z,0.00
2019-04-09T01:28:06.276Z,0.00
2019-04-09T01:29:05.536Z,0.00
2019-04-09T01:30:05.476Z,0.00
2019-04-09T01:31:05.380Z,0.00
2019-04-09T01:32:05.350Z,0.00
2019-04-09T01:33:06.447Z,0.00
2019-04-09T01:34:05.485Z,0.00
2019-04-09T01:35:05.540Z,0.00
2019-04-09T01:36:05.497Z,0.00
2019-04-09T01:37:05.115Z,0.00
2019-04-09T01:38:06.120Z,0.00
2019-04-09T01:39:05.021Z,0.00
2019-04-09T01:40:05.320Z,0.00
2019-04-09T01:41:04.916Z,0.00
2019-04-09T01:42:04.881Z,0.00
2019-04-09T01:43:05.686Z,0.00
2019-04-09T01:44:05.353Z,0.00
2019-04-09T01:45:05.042Z,0.00
2019-04-09T01:46:04.682Z,0.00
2019-04-09T01:47:04.636Z,0.00
2019-04-09T01:48:05.349Z,0.00
2019-04-09T01:49:05.263Z,0.00
2019-04-09T01:50:04.543Z,0.00
2019-04-09T01:51:04.462Z,0.00
2019-04-09T01:52:04.405Z,0.00
2019-04-09T01:53:05.191Z,0.00
2019-04-09T01:54:05.316Z,0.00
2019-04-09T01:55:04.547Z,0.00
2019-04-09T01:56:04.418Z,0.00
2019-04-09T01:57:04.171Z,0.00
2019-04-09T01:58:04.327Z,0.00
2019-04-09T01:59:04.211Z,0.00
2019-04-09T02:00:04.044Z,0.00
2019-04-09T02:01:03.996Z,0.00
2019-04-09T02:02:04.750Z,0.00
2019-04-09T02:03:04.641Z,0.00
2019-04-09T02:04:03.844Z,0.00
2019-04-09T02:05:04.759Z,0.00
2019-04-09T02:06:04.702Z,0.00
2019-04-09T02:07:03.915Z,0.00
2019-04-09T02:08:03.716Z,0.00
2019-04-09T02:09:03.613Z,0.00
2019-04-09T02:10:04.626Z,0.00
2019-04-09T02:11:04.501Z,0.00
2019-04-09T02:12:04.052Z,0.00
2019-04-09T02:13:03.889Z,0.00
2019-04-09T02:14:03.377Z,0.00
2019-04-09T02:15:03.344Z,0.00
2019-04-09T02:16:03.983Z,0.00
2019-04-09T02:17:03.772Z,0.00
2019-04-09T02:18:03.194Z,0.00
2019-04-09T02:19:03.158Z,0.00
2019-04-09T02:20:03.067Z,0.00
2019-04-09T02:21:04.468Z,0.00
2019-04-09T02:22:03.953Z,0.00
2019-04-09T02:23:03.158Z,0.00
2019-04-09T02:24:03.088Z,0.00
2019-04-09T02:25:02.866Z,0.00
2019-04-09T02:26:03.935Z,0.00
2019-04-09T02:27:03.739Z,0.00
2019-04-09T02:28:02.738Z,0.00
2019-04-09T02:29:02.679Z,0.00
2019-04-09T02:30:04.230Z,0.00
2019-04-09T02:31:04.027Z,0.00
2019-04-09T02:32:03.899Z,0.00
2019-04-09T02:33:02.540Z,0.00
2019-04-09T02:34:02.914Z,0.00
2019-04-09T02:35:03.247Z,0.00
2019-04-09T02:36:03.993Z,0.00
2019-04-09T02:37:02.325Z,0.00
2019-04-09T02:38:03.701Z,0.00
2019-04-09T02:39:03.058Z,0.00
2019-04-09T02:40:03.180Z,0.00
2019-04-09T02:41:02.891Z,0.00
2019-04-09T02:42:02.161Z,0.00
2019-04-09T02:43:02.039Z,0.00
2019-04-09T02:44:02.706Z,0.00
2019-04-09T02:45:01.945Z,0.00
2019-04-09T02:46:01.925Z,0.00
2019-04-09T02:47:01.852Z,0.00
2019-04-09T02:48:01.792Z,0.00
2019-04-09T02:49:01.978Z,0.00
2019-04-09T02:50:02.118Z,0.00
2019-04-09T02:51:01.812Z,0.00
2019-04-09T02:52:01.620Z,0.00
2019-04-09T02:53:02.711Z,0.00
2019-04-09T02:54:01.514Z,0.00
2019-04-09T02:55:02.556Z,0.00
2019-04-09T02:56:01.436Z,0.00
2019-04-09T02:57:01.375Z,0.00
2019-04-09T02:58:02.929Z,0.00
2019-04-09T02:59:01.293Z,0.00
2019-04-09T03:00:01.297Z,0.00
2019-04-09T03:01:01.207Z,0.00
2019-04-09T03:02:01.313Z,0.00
2019-04-09T03:03:01.107Z,0.00
2019-04-09T03:04:01.047Z,0.00
2019-04-09T03:05:01.978Z,0.00
2019-04-09T03:06:01.267Z,0.00
2019-04-09T03:07:01.163Z,0.00
2019-04-09T03:08:00.875Z,0.00
2019-04-09T03:09:00.828Z,0.00
2019-04-09T03:10:01.858Z,0.00
2019-04-09T03:11:00.886Z,0.00
2019-04-09T03:12:00.755Z,0.00
2019-04-09T03:13:01.677Z,0.00
2019-04-09T03:14:01.662Z,0.00
2019-04-09T03:15:00.548Z,0.00
2019-04-09T03:16:00.684Z,0.00
2019-04-09T03:17:01.341Z,0.00
2019-04-09T03:18:00.396Z,0.00
2019-04-09T03:19:00.415Z,0.00
2019-04-09T03:20:01.462Z,0.00
2019-04-09T03:21:01.329Z,0.00
2019-04-09T03:22:00.223Z,0.00
2019-04-09T03:23:00.331Z,0.00
2019-04-09T03:24:00.167Z,0.00
2019-04-09T03:25:00.083Z,0.00
2019-04-09T03:26:00.037Z,0.00
2019-04-09T03:26:59.979Z,0.00
2019-04-09T03:28:05.911Z,0.00
2019-04-09T03:28:59.884Z,0.00
2019-04-09T03:30:00.004Z,0.00
2019-04-09T03:31:01.519Z,0.00
2019-04-09T03:32:00.897Z,0.00
2019-04-09T03:33:00.283Z,0.00
2019-04-09T03:34:01.430Z,0.00
2019-04-09T03:35:00.668Z,0.00
2019-04-09T03:36:00.555Z,0.00
2019-04-09T03:36:59.827Z,0.00
2019-04-09T03:37:59.673Z,0.00
2019-04-09T03:38:59.443Z,0.00
2019-04-09T03:39:59.388Z,0.00
2019-04-09T03:41:00.320Z,0.00
2019-04-09T03:41:59.516Z,0.00
2019-04-09T03:42:59.516Z,0.00
2019-04-09T03:44:00.307Z,0.00
2019-04-09T03:45:00.163Z,0.00
2019-04-09T03:45:59.688Z,0.00
2019-04-09T03:46:59.098Z,0.00
2019-04-09T03:47:58.999Z,0.00
2019-04-09T03:49:00.024Z,0.00
2019-04-09T03:49:58.944Z,0.00
2019-04-09T03:50:58.858Z,0.00
2019-04-09T03:51:58.813Z,0.00
2019-04-09T03:52:58.778Z,0.00
2019-04-09T03:53:58.750Z,0.00
2019-04-09T03:54:59.672Z,0.00
2019-04-09T03:56:00.215Z,0.00
2019-04-09T03:56:59.175Z,0.00
2019-04-09T03:57:58.533Z,0.00
2019-04-09T03:58:58.490Z,0.00
2019-04-09T03:59:58.451Z,0.00
2019-04-09T04:00:59.300Z,0.00
2019-04-09T04:01:58.358Z,0.00
2019-04-09T04:02:58.813Z,0.00
2019-04-09T04:03:58.915Z,0.00
2019-04-09T04:04:58.763Z,0.00
2019-04-09T04:05:58.162Z,0.00
2019-04-09T04:06:59.018Z,0.00
2019-04-09T04:07:58.318Z,0.00
2019-04-09T04:08:58.267Z,0.00
2019-04-09T04:09:57.991Z,0.00
2019-04-09T04:10:58.517Z,0.00
2019-04-09T04:11:58.569Z,0.00
2019-04-09T04:12:57.846Z,0.00
2019-04-09T04:13:57.906Z,0.00
2019-04-09T04:14:57.740Z,0.00
2019-04-09T04:15:57.706Z,0.00
2019-04-09T04:16:57.660Z,0.00
2019-04-09T04:17:57.761Z,0.00
2019-04-09T04:18:57.567Z,0.00
2019-04-09T04:19:58.091Z,0.00
2019-04-09T04:20:58.142Z,0.00
2019-04-09T04:21:57.416Z,0.00
2019-04-09T04:22:58.196Z,0.00
2019-04-09T04:23:58.012Z,0.00
2019-04-09T04:24:57.367Z,0.00
2019-04-09T04:25:57.550Z,0.00
2019-04-09T04:26:57.195Z,0.00
2019-04-09T04:27:57.135Z,0.00
2019-04-09T04:28:57.399Z,0.00
2019-04-09T04:29:57.836Z,0.00
2019-04-09T04:30:57.032Z,0.00
2019-04-09T04:31:56.969Z,0.00
2019-04-09T04:32:56.902Z,0.00
2019-04-09T04:33:56.855Z,0.00
2019-04-09T04:34:56.810Z,0.00
2019-04-09T04:35:57.609Z,0.00
2019-04-09T04:36:57.685Z,0.00
2019-04-09T04:37:56.685Z,0.00
2019-04-09T04:38:56.635Z,0.00
2019-04-09T04:39:57.502Z,0.00
2019-04-09T04:40:56.531Z,0.00
2019-04-09T04:41:56.837Z,0.00
2019-04-09T04:42:56.519Z,0.00
2019-04-09T04:43:56.402Z,0.00
2019-04-09T04:44:57.391Z,0.00
2019-04-09T04:45:56.300Z,0.00
2019-04-09T04:46:57.033Z,0.00
2019-04-09T04:47:57.082Z,0.00
2019-04-09T04:48:56.252Z,0.00
2019-04-09T04:49:56.123Z,0.00
2019-04-09T04:50:56.076Z,0.00
2019-04-09T04:51:58.247Z,0.00
2019-04-09T04:52:55.970Z,0.00
2019-04-09T04:53:55.950Z,0.00
2019-04-09T04:54:56.665Z,0.00
2019-04-09T04:55:55.859Z,0.00
2019-04-09T04:56:56.364Z,0.00
2019-04-09T04:57:55.743Z,0.00
2019-04-09T04:58:55.904Z,0.00
2019-04-09T04:59:56.195Z,0.00
2019-04-09T05:00:55.610Z,0.00
2019-04-09T05:01:55.551Z,0.00
2019-04-09T05:02:55.683Z,0.00
2019-04-09T05:03:55.471Z,0.00
2019-04-09T05:04:55.411Z,0.00
2019-04-09T05:05:55.464Z,0.00
2019-04-09T05:06:55.333Z,0.00
2019-04-09T05:07:55.314Z,0.00
2019-04-09T05:08:55.242Z,0.00
2019-04-09T05:09:55.191Z,0.00
2019-04-09T05:10:55.132Z,0.00
2019-04-09T05:11:55.099Z,0.00
2019-04-09T05:12:56.056Z,0.00
2019-04-09T05:13:54.994Z,0.00
2019-04-09T05:14:55.071Z,0.00
2019-04-09T05:15:55.500Z,0.00
2019-04-09T05:16:54.866Z,0.00
2019-04-09T05:17:55.278Z,0.00
2019-04-09T05:18:55.670Z,0.00
2019-04-09T05:19:55.005Z,0.00
2019-04-09T05:20:54.666Z,0.00
2019-04-09T05:21:54.668Z,0.00
2019-04-09T05:22:54.845Z,0.00
2019-04-09T05:23:54.539Z,0.00
2019-04-09T05:24:54.597Z,0.00
2019-04-09T05:25:54.448Z,0.00
2019-04-09T05:26:54.389Z,0.00
2019-04-09T05:27:54.340Z,0.00
2019-04-09T05:29:00.214Z,0.00
2019-04-09T05:29:54.247Z,0.00
2019-04-09T05:30:54.620Z,0.00
2019-04-09T05:31:54.937Z,0.00
2019-04-09T05:32:56.790Z,0.00
2019-04-09T05:33:54.076Z,0.00
2019-04-09T05:34:54.628Z,0.00
2019-04-09T05:35:53.982Z,0.00
2019-04-09T05:36:53.921Z,0.00
2019-04-09T05:37:54.207Z,0.00
2019-04-09T05:38:53.827Z,0.00
2019-04-09T05:39:54.687Z,0.00
2019-04-09T05:40:53.739Z,0.00
2019-04-09T05:41:54.356Z,0.00
2019-04-09T05:42:53.653Z,0.00
2019-04-09T05:43:54.596Z,0.00
2019-04-09T05:44:53.758Z,0.00
2019-04-09T05:45:53.514Z,0.00
2019-04-09T05:46:54.221Z,0.00
2019-04-09T05:47:53.408Z,0.00
2019-04-09T05:48:53.374Z,0.00
2019-04-09T05:49:54.102Z,0.00
2019-04-09T05:50:54.186Z,0.00
2019-04-09T05:51:53.221Z,0.00
2019-04-09T05:52:53.385Z,0.00
2019-04-09T05:53:53.331Z,0.00
2019-04-09T05:54:53.096Z,0.00
2019-04-09T05:55:53.641Z,0.00
2019-04-09T05:56:53.003Z,0.00
2019-04-09T05:57:53.044Z,0.00
2019-04-09T05:59:01.399Z,0.00
2019-04-09T05:59:53.392Z,0.00
2019-04-09T06:00:52.812Z,0.00
2019-04-09T06:01:52.756Z,0.00
2019-04-09T06:02:53.522Z,0.00
2019-04-09T06:03:53.496Z,0.00
2019-04-09T06:04:52.629Z,0.00
2019-04-09T06:05:53.313Z,0.00
2019-04-09T06:06:52.522Z,0.00
2019-04-09T06:07:53.469Z,0.00
2019-04-09T06:08:52.444Z,0.00
2019-04-09T06:09:53.256Z,0.00
2019-04-09T06:10:52.337Z,0.00
2019-04-09T06:11:52.289Z,0.00
2019-04-09T06:12:53.222Z,0.00
2019-04-09T06:13:52.209Z,0.00
2019-04-09T06:14:54.064Z,0.00
2019-04-09T06:15:53.083Z,0.00
2019-04-09T06:16:52.553Z,0.00
2019-04-09T06:17:52.010Z,0.00
2019-04-09T06:18:51.964Z,0.00
2019-04-09T06:19:52.516Z,0.00
2019-04-09T06:20:52.166Z,0.00
2019-04-09T06:21:52.841Z,0.00
2019-04-09T06:22:51.880Z,0.00
2019-04-09T06:23:51.743Z,0.00
2019-04-09T06:24:51.962Z,0.00
2019-04-09T06:25:51.639Z,0.00
2019-04-09T06:26:51.591Z,0.00
2019-04-09T06:27:51.543Z,0.00
2019-04-09T06:28:51.510Z,0.00
2019-04-09T06:29:52.097Z,0.00
2019-04-09T06:30:51.666Z,0.00
2019-04-09T06:31:51.358Z,0.00
2019-04-09T06:32:51.324Z,0.00
2019-04-09T06:33:51.278Z,0.00
2019-04-09T06:34:51.218Z,0.00
2019-04-09T06:35:51.303Z,0.00
2019-04-09T06:36:52.151Z,0.00
2019-04-09T06:37:51.408Z,0.00
2019-04-09T06:38:51.045Z,0.00
2019-04-09T06:39:50.985Z,0.00
2019-04-09T06:40:50.939Z,0.00
2019-04-09T06:41:51.995Z,0.00
2019-04-09T06:42:50.845Z,0.00
2019-04-09T06:43:50.799Z,0.00
2019-04-09T06:44:50.946Z,0.00
2019-04-09T06:45:51.381Z,0.00
2019-04-09T06:46:51.782Z,0.00
2019-04-09T06:47:50.993Z,0.00
2019-04-09T06:48:50.583Z,0.00
2019-04-09T06:49:50.601Z,0.00
2019-04-09T06:50:51.315Z,0.00
2019-04-09T06:51:52.926Z,0.00
2019-04-09T06:52:50.856Z,0.00
2019-04-09T06:53:50.347Z,0.00
2019-04-09T06:54:57.890Z,0.00
2019-04-09T06:55:51.931Z,0.00
2019-04-09T06:56:50.211Z,0.00
2019-04-09T06:57:50.160Z,0.00
2019-04-09T06:58:50.545Z,0.00
2019-04-09T06:59:50.594Z,0.00
2019-04-09T07:00:51.007Z,0.00
2019-04-09T07:01:50.134Z,0.00
2019-04-09T07:02:51.023Z,0.00
2019-04-09T07:03:50.971Z,0.00
2019-04-09T07:04:50.265Z,0.00
2019-04-09T07:05:49.793Z,0.00
2019-04-09T07:06:49.729Z,0.00
2019-04-09T07:07:49.858Z,0.00
2019-04-09T07:08:49.636Z,0.00
2019-04-09T07:09:49.712Z,0.00
2019-04-09T07:10:49.556Z,0.00
2019-04-09T07:11:49.500Z,0.00
2019-04-09T07:12:49.450Z,0.00
2019-04-09T07:13:49.757Z,0.00
2019-04-09T07:14:52.191Z,0.00
2019-04-09T07:15:49.323Z,0.00
2019-04-09T07:16:49.799Z,0.00
2019-04-09T07:17:49.231Z,0.00
2019-04-09T07:18:49.185Z,0.00
2019-04-09T07:19:49.395Z,0.00
2019-04-09T07:20:49.091Z,0.00
2019-04-09T07:21:49.044Z,0.00
2019-04-09T07:22:49.138Z,0.00
2019-04-09T07:23:48.941Z,0.00
2019-04-09T07:24:48.913Z,0.00
2019-04-09T07:25:48.845Z,0.00
2019-04-09T07:26:50.307Z,0.00
2019-04-09T07:27:52.570Z,0.00
2019-04-09T07:28:48.726Z,0.00
2019-04-09T07:29:57.292Z,0.00
2019-04-09T07:30:49.699Z,0.00
2019-04-09T07:31:48.986Z,0.00
2019-04-09T07:32:48.536Z,0.00
2019-04-09T07:33:49.413Z,0.00
2019-04-09T07:34:51.776Z,0.00
2019-04-09T07:35:48.579Z,0.00
2019-04-09T07:36:48.685Z,0.00
2019-04-09T07:37:48.289Z,0.00
2019-04-09T07:38:51.757Z,0.00
2019-04-09T07:39:48.206Z,0.00
2019-04-09T07:40:48.147Z,0.00
2019-04-09T07:41:49.653Z,0.00
2019-04-09T07:42:49.449Z,0.00
2019-04-09T07:43:49.541Z,0.00
2019-04-09T07:44:47.961Z,0.00
2019-04-09T07:45:47.914Z,0.00
2019-04-09T07:46:49.404Z,0.00
2019-04-09T07:47:48.117Z,0.00
2019-04-09T07:48:48.375Z,0.00
2019-04-09T07:49:47.748Z,0.00
2019-04-09T07:50:47.681Z,0.00
2019-04-09T07:51:49.784Z,0.00
2019-04-09T07:52:48.362Z,0.00
2019-04-09T07:53:48.924Z,0.00
2019-04-09T07:54:49.595Z,0.00
2019-04-09T07:55:47.466Z,0.00
2019-04-09T07:56:47.404Z,0.00
2019-04-09T07:57:48.397Z,0.00
2019-04-09T07:58:47.324Z,0.00
2019-04-09T08:00:00.111Z,0.00
2019-04-09T08:00:47.745Z,0.00
2019-04-09T08:01:48.228Z,0.00
2019-04-09T08:02:49.012Z,0.00
2019-04-09T08:03:47.198Z,0.00
2019-04-09T08:04:49.155Z,0.00
2019-04-09T08:05:48.267Z,0.00
2019-04-09T08:06:49.798Z,0.00
2019-04-09T08:07:47.367Z,0.00
2019-04-09T08:08:46.856Z,0.00
2019-04-09T08:09:46.810Z,0.00
2019-04-09T08:10:46.763Z,0.00
2019-04-09T08:11:46.904Z,0.00
2019-04-09T08:12:49.594Z,0.00
2019-04-09T08:13:50.336Z,0.00
2019-04-09T08:14:46.564Z,0.00
2019-04-09T08:15:46.560Z,0.00
2019-04-09T08:16:46.671Z,0.00
2019-04-09T08:17:50.274Z,0.00
2019-04-09T08:18:47.204Z,0.00
2019-04-09T08:19:47.202Z,0.00
2019-04-09T08:20:46.297Z,0.00
2019-04-09T08:21:47.552Z,0.00
2019-04-09T08:22:48.314Z,0.00
2019-04-09T08:23:49.055Z,0.00
2019-04-09T08:24:46.206Z,0.00
2019-04-09T08:25:46.353Z,0.00
2019-04-09T08:26:47.048Z,0.00
2019-04-09T08:27:46.742Z,0.00
2019-04-09T08:28:49.822Z,0.00
2019-04-09T08:29:46.347Z,0.00
2019-04-09T08:30:45.832Z,0.00
2019-04-09T08:31:56.277Z,0.00
2019-04-09T08:32:47.462Z,0.00
2019-04-09T08:33:45.711Z,0.00
2019-04-09T08:34:46.040Z,0.00
2019-04-09T08:35:46.128Z,0.00
2019-04-09T08:36:47.291Z,0.00
2019-04-09T08:37:45.506Z,0.00
2019-04-09T08:38:45.586Z,0.00
2019-04-09T08:39:45.422Z,0.00
2019-04-09T08:40:49.667Z,0.00
2019-04-09T08:41:46.310Z,0.00
2019-04-09T08:42:45.260Z,0.00
2019-04-09T08:43:45.713Z,0.00
2019-04-09T08:44:48.746Z,0.00
2019-04-09T08:45:47.200Z,0.00
2019-04-09T08:46:46.198Z,0.00
2019-04-09T08:47:46.469Z,0.00
2019-04-09T08:48:46.005Z,0.00
2019-04-09T08:49:49.147Z,0.00
2019-04-09T08:50:45.158Z,0.00
2019-04-09T08:51:45.362Z,0.00
2019-04-09T08:52:46.207Z,0.00
2019-04-09T08:53:46.932Z,0.00
2019-04-09T08:54:44.705Z,0.00
2019-04-09T08:55:45.171Z,0.00
2019-04-09T08:56:46.030Z,0.00
2019-04-09T08:57:48.168Z,0.00
2019-04-09T08:58:44.728Z,0.00
2019-04-09T08:59:45.296Z,0.00
2019-04-09T09:01:21.157Z,0.00
2019-04-09T09:02:01.305Z,0.00
2019-04-09T09:02:49.680Z,4.00
2019-04-09T09:03:52.443Z,4.00
2019-04-09T09:04:54.096Z,0.00
2019-04-09T09:05:54.751Z,4.00
2019-04-09T09:06:49.219Z,4.00
2019-04-09T09:07:44.152Z,4.00
2019-04-09T09:08:44.301Z,8.00
2019-04-09T09:09:47.570Z,8.00
2019-04-09T09:10:44.169Z,8.00
2019-04-09T09:11:43.922Z,12.00
2019-04-09T09:12:44.835Z,12.00
2019-04-09T09:13:43.816Z,20.00
2019-04-09T09:14:43.783Z,20.00
2019-04-09T09:15:43.736Z,24.00
2019-04-09T09:16:43.890Z,32.00
2019-04-09T09:17:48.722Z,36.00
2019-04-09T09:18:44.439Z,40.00
2019-04-09T09:19:43.746Z,44.00
2019-04-09T09:20:46.305Z,52.00
2019-04-09T09:21:44.204Z,56.00
2019-04-09T09:22:44.745Z,64.00
2019-04-09T09:23:45.587Z,68.00
2019-04-09T09:24:43.310Z,72.00
2019-04-09T09:25:43.318Z,84.00
2019-04-09T09:26:44.098Z,96.00
2019-04-09T09:27:44.864Z,116.00
2019-04-09T09:28:43.333Z,116.00
2019-04-09T09:29:43.833Z,112.00
2019-04-09T09:30:58.783Z,124.00
2019-04-09T09:31:42.995Z,132.00
2019-04-09T09:32:46.135Z,184.00
2019-04-09T09:33:46.087Z,232.00
2019-04-09T09:34:45.413Z,232.00
2019-04-09T09:35:42.793Z,220.00
2019-04-09T09:36:42.749Z,256.00
2019-04-09T09:37:45.604Z,320.00
2019-04-09T09:38:42.665Z,348.00
2019-04-09T09:39:42.620Z,336.00
2019-04-09T09:40:42.897Z,344.00
2019-04-09T09:41:42.558Z,336.00
2019-04-09T09:42:42.590Z,336.00
2019-04-09T09:43:43.531Z,324.00
2019-04-09T09:44:43.736Z,308.00
2019-04-09T09:45:42.328Z,292.00
2019-04-09T09:46:45.296Z,284.00
2019-04-09T09:47:47.260Z,276.00
2019-04-09T09:48:43.050Z,268.00
2019-04-09T09:49:42.996Z,264.00
2019-04-09T09:50:42.101Z,252.00
2019-04-09T09:51:44.731Z,244.00
2019-04-09T09:52:42.205Z,232.00
2019-04-09T09:53:42.114Z,224.00
2019-04-09T09:54:42.961Z,220.00
2019-04-09T09:55:41.864Z,216.00
2019-04-09T09:56:43.708Z,212.00
2019-04-09T09:57:43.761Z,208.00
2019-04-09T09:58:45.653Z,208.00
2019-04-09T09:59:41.692Z,212.00
2019-04-09T10:00:42.262Z,212.00
2019-04-09T10:01:43.842Z,228.00
2019-04-09T10:02:45.149Z,248.00
2019-04-09T10:03:45.315Z,300.00
2019-04-09T10:04:41.666Z,388.00
2019-04-09T10:05:41.413Z,516.00
2019-04-09T10:06:41.869Z,704.00
2019-04-09T10:07:51.630Z,896.00
2019-04-09T10:08:41.641Z,1136.00
2019-04-09T10:09:43.060Z,1328.00
2019-04-09T10:10:41.384Z,1384.00
2019-04-09T10:11:41.135Z,1492.00
2019-04-09T10:12:45.730Z,1456.00
2019-04-09T10:13:41.036Z,1356.00
2019-04-09T10:14:41.020Z,1284.00
2019-04-09T10:15:43.010Z,1212.00
2019-04-09T10:16:45.357Z,984.00
2019-04-09T10:17:43.439Z,736.00
2019-04-09T10:18:55.126Z,640.00
2019-04-09T10:19:40.765Z,600.00
2019-04-09T10:20:44.034Z,584.00
2019-04-09T10:21:45.314Z,584.00
2019-04-09T10:22:41.473Z,568.00
2019-04-09T10:23:40.568Z,532.00
2019-04-09T10:24:41.443Z,480.00
2019-04-09T10:25:40.482Z,428.00
2019-04-09T10:26:40.653Z,404.00
2019-04-09T10:27:45.015Z,416.00
2019-04-09T10:28:40.562Z,452.00
2019-04-09T10:29:40.302Z,500.00
2019-04-09T10:30:44.230Z,552.00
2019-04-09T10:31:47.098Z,612.00
2019-04-09T10:32:41.496Z,680.00
2019-04-09T10:33:41.409Z,788.00
2019-04-09T10:34:40.276Z,916.00
2019-04-09T10:35:40.466Z,1036.00
2019-04-09T10:36:39.967Z,1116.00
2019-04-09T10:37:40.979Z,1156.00
2019-04-09T10:38:39.888Z,1132.00
2019-04-09T10:39:39.837Z,1096.00
2019-04-09T10:40:40.960Z,1036.00
2019-04-09T10:41:46.051Z,980.00
2019-04-09T10:42:40.956Z,944.00
2019-04-09T10:43:41.970Z,924.00
2019-04-09T10:44:41.193Z,912.00
2019-04-09T10:45:39.735Z,944.00
2019-04-09T10:46:40.089Z,1020.00
2019-04-09T10:47:41.890Z,1124.00
2019-04-09T10:48:43.009Z,1220.00
2019-04-09T10:49:39.834Z,1296.00
2019-04-09T10:50:42.462Z,1372.00
2019-04-09T10:51:41.447Z,1420.00
2019-04-09T10:52:39.608Z,1452.00
2019-04-09T10:53:39.722Z,1496.00
2019-04-09T10:54:43.563Z,1516.00
2019-04-09T10:55:39.575Z,1440.00
2019-04-09T10:56:39.055Z,1304.00
2019-04-09T10:57:39.768Z,1236.00
2019-04-09T10:58:39.156Z,1228.00
2019-04-09T10:59:39.661Z,1276.00
2019-04-09T11:00:39.977Z,1376.00
2019-04-09T11:01:42.797Z,1520.00
2019-04-09T11:02:38.903Z,1720.00
2019-04-09T11:03:39.430Z,1964.00
2019-04-09T11:04:42.521Z,2196.00
2019-04-09T11:05:38.628Z,2324.00
2019-04-09T11:06:39.145Z,2336.00
2019-04-09T11:07:38.553Z,2032.00
2019-04-09T11:08:39.916Z,1628.00
2019-04-09T11:09:38.907Z,1448.00
2019-04-09T11:10:43.552Z,1504.00
2019-04-09T11:11:39.324Z,1664.00
2019-04-09T11:12:39.256Z,1844.00
2019-04-09T11:13:38.435Z,1912.00
2019-04-09T11:14:42.735Z,1852.00
2019-04-09T11:15:38.941Z,1824.00
2019-04-09T11:16:38.322Z,1888.00
2019-04-09T11:17:40.846Z,1988.00
2019-04-09T11:18:38.036Z,2092.00
2019-04-09T11:19:37.990Z,2192.00
2019-04-09T11:20:37.952Z,2144.00
2019-04-09T11:21:40.848Z,2028.00
2019-04-09T11:22:38.648Z,1916.00
2019-04-09T11:23:37.807Z,1892.00
2019-04-09T11:24:37.798Z,1880.00
2019-04-09T11:25:39.191Z,1896.00
2019-04-09T11:26:41.848Z,1892.00
2019-04-09T11:27:37.616Z,1860.00
2019-04-09T11:28:38.298Z,1884.00
2019-04-09T11:29:37.544Z,1948.00
2019-04-09T11:30:39.138Z,2064.00
2019-04-09T11:31:45.495Z,2160.00
2019-04-09T11:32:38.184Z,2268.00
2019-04-09T11:33:38.261Z,2288.00
2019-04-09T11:34:37.310Z,2172.00
2019-04-09T11:35:37.254Z,2136.00
2019-04-09T11:36:37.216Z,2036.00
2019-04-09T11:37:37.162Z,1836.00
2019-04-09T11:38:37.444Z,1696.00
2019-04-09T11:39:37.065Z,1544.00
2019-04-09T11:40:37.063Z,1388.00
2019-04-09T11:41:37.085Z,1236.00
2019-04-09T11:42:36.940Z,1108.00
2019-04-09T11:43:36.883Z,1072.00
2019-04-09T11:44:37.374Z,1084.00
2019-04-09T11:45:37.717Z,1100.00
2019-04-09T11:46:36.901Z,1092.00
2019-04-09T11:47:36.725Z,1028.00
2019-04-09T11:48:36.652Z,968.00
2019-04-09T11:49:36.618Z,992.00
2019-04-09T11:50:36.571Z,1132.00
2019-04-09T11:51:37.485Z,1252.00
2019-04-09T11:52:36.505Z,1220.00
2019-04-09T11:53:36.545Z,1232.00
2019-04-09T11:54:36.574Z,1236.00
2019-04-09T11:55:36.333Z,1200.00
2019-04-09T11:56:36.288Z,1156.00
2019-04-09T11:57:37.770Z,1208.00
2019-04-09T11:58:36.357Z,1288.00
2019-04-09T11:59:37.253Z,1284.00
2019-04-09T12:00:36.113Z,1356.00
2019-04-09T12:01:36.608Z,1388.00
2019-04-09T12:02:36.712Z,1304.00
2019-04-09T12:03:35.990Z,1156.00
2019-04-09T12:04:36.134Z,1148.00
2019-04-09T12:05:36.467Z,1272.00
2019-04-09T12:06:35.821Z,1464.00
2019-04-09T12:07:35.927Z,1652.00
2019-04-09T12:08:35.731Z,1828.00
2019-04-09T12:09:35.682Z,1884.00
2019-04-09T12:10:36.503Z,1880.00
2019-04-09T12:11:36.718Z,1932.00
2019-04-09T12:12:35.984Z,1980.00
2019-04-09T12:13:35.530Z,2072.00
2019-04-09T12:14:36.006Z,2088.00
2019-04-09T12:15:35.539Z,2168.00
2019-04-09T12:16:35.438Z,2240.00
2019-04-09T12:17:35.315Z,2376.00
2019-04-09T12:18:35.780Z,2432.00
2019-04-09T12:19:35.247Z,2436.00
2019-04-09T12:20:36.013Z,2472.00
2019-04-09T12:21:35.389Z,2544.00
2019-04-09T12:22:36.210Z,2700.00
2019-04-09T12:23:35.049Z,2864.00
2019-04-09T12:24:35.436Z,3040.00
2019-04-09T12:25:35.808Z,3072.00
2019-04-09T12:26:35.060Z,3084.00
2019-04-09T12:27:34.876Z,3092.00
2019-04-09T12:28:35.203Z,2940.00
2019-04-09T12:29:35.831Z,2916.00
2019-04-09T12:30:35.783Z,2796.00
2019-04-09T12:31:34.668Z,2640.00
2019-04-09T12:32:35.610Z,2616.00
2019-04-09T12:33:35.464Z,2732.00
2019-04-09T12:34:34.670Z,2696.00
2019-04-09T12:35:34.483Z,2552.00
2019-04-09T12:36:35.140Z,2540.00
2019-04-09T12:37:34.493Z,2620.00
2019-04-09T12:38:35.542Z,2680.00
2019-04-09T12:39:34.315Z,2632.00
2019-04-09T12:40:34.954Z,2600.00
2019-04-09T12:41:35.284Z,2620.00
2019-04-09T12:42:34.505Z,2632.00
2019-04-09T12:43:34.882Z,2636.00
2019-04-09T12:44:34.095Z,2716.00
2019-04-09T12:45:34.057Z,2872.00
2019-04-09T12:46:33.992Z,3088.00
2019-04-09T12:47:34.450Z,3128.00
2019-04-09T12:48:34.796Z,3080.00
2019-04-09T12:49:33.854Z,3068.00
2019-04-09T12:50:34.050Z,3236.00
2019-04-09T12:51:33.748Z,3416.00
2019-04-09T12:52:33.718Z,3652.00
2019-04-09T12:53:34.184Z,3816.00
2019-04-09T12:54:34.672Z,3792.00
2019-04-09T12:55:33.583Z,3564.00
2019-04-09T12:56:33.534Z,3512.00
2019-04-09T12:57:33.658Z,3460.00